createdAt,value
2023-07-04T00:01:36.344Z,99596.44
2023-07-04T00:04:08.875Z,99599.94
2023-07-04T00:06:38.026Z,99604.53
2023-07-04T00:09:06.549Z,99601.88
2023-07-04T00:11:35.071Z,99607.00
2023-07-04T00:14:02.940Z,99599.53
2023-07-04T00:16:30.788Z,99609.19
2023-07-04T00:18:58.751Z,99604.97
2023-07-04T00:21:27.422Z,99612.41
2023-07-04T00:23:55.104Z,99609.38
2023-07-04T00:26:25.070Z,99623.50
2023-07-04T00:28:53.828Z,99613.69
2023-07-04T00:31:25.721Z,99622.00
2023-07-04T00:33:55.062Z,99617.75
2023-07-04T00:36:23.534Z,99618.56
2023-07-04T00:38:57.087Z,99618.94
2023-07-04T00:41:28.329Z,99628.28
2023-07-04T00:44:10.830Z,99620.84
2023-07-04T00:47:08.561Z,99629.06
2023-07-04T00:49:43.654Z,99621.84
2023-07-04T00:52:17.359Z,99626.34
2023-07-04T00:54:54.082Z,99621.81
2023-07-04T00:57:26.738Z,99632.41
2023-07-04T00:59:59.667Z,99634.69
2023-07-04T01:02:32.970Z,99634.31
2023-07-04T01:05:04.914Z,99647.66
2023-07-04T01:08:20.395Z,99642.06
2023-07-04T01:10:49.152Z,99648.16
2023-07-04T01:13:35.335Z,99653.84
2023-07-04T01:16:10.537Z,99657.09
2023-07-04T01:18:39.747Z,99656.50
2023-07-04T01:21:10.355Z,99654.69
2023-07-04T01:23:59.687Z,99663.13
2023-07-04T01:26:38.227Z,99662.06
2023-07-04T01:29:11.801Z,99657.00
2023-07-04T01:31:45.373Z,99667.66
2023-07-04T01:34:14.644Z,99667.84
2023-07-04T01:36:43.629Z,99666.97
2023-07-04T01:39:16.640Z,99671.38
2023-07-04T01:41:47.036Z,99667.31
2023-07-04T01:44:20.316Z,99674.19
2023-07-04T01:46:48.033Z,99686.03
2023-07-04T01:49:16.638Z,99686.84
2023-07-04T01:51:44.436Z,99691.44
2023-07-04T01:54:18.396Z,99695.03
2023-07-04T01:56:49.724Z,99695.00
2023-07-04T01:59:17.416Z,99695.56
2023-07-04T02:01:45.245Z,99695.50
2023-07-04T02:04:13.099Z,99698.72
2023-07-04T02:06:40.777Z,99704.63
2023-07-04T02:09:08.924Z,99707.88
2023-07-04T02:11:38.361Z,99714.13
2023-07-04T02:14:07.447Z,99711.94
2023-07-04T02:16:35.225Z,99717.56
2023-07-04T02:19:03.193Z,99712.72
2023-07-04T02:21:30.888Z,99715.50
2023-07-04T02:24:00.789Z,99704.94
2023-07-04T02:26:29.559Z,99714.97
2023-07-04T02:28:57.574Z,99715.56
2023-07-04T02:31:25.617Z,99724.19
2023-07-04T02:33:54.574Z,99720.53
2023-07-04T02:36:22.884Z,99729.19
2023-07-04T02:38:52.006Z,99722.03
2023-07-04T02:41:20.494Z,99731.69
2023-07-04T02:43:53.068Z,99730.22
2023-07-04T02:46:21.516Z,99731.91
2023-07-04T02:48:53.038Z,99739.75
2023-07-04T02:51:20.871Z,99745.16
2023-07-04T02:53:49.037Z,99739.44
2023-07-04T02:56:16.780Z,99750.94
2023-07-04T02:58:44.996Z,99751.09
2023-07-04T03:01:12.953Z,99745.63
2023-07-04T03:03:42.434Z,99756.09
2023-07-04T03:06:11.438Z,99740.66
2023-07-04T03:08:41.805Z,99742.97
2023-07-04T03:11:09.673Z,99751.03
2023-07-04T03:13:37.436Z,99747.50
2023-07-04T03:16:06.523Z,99741.78
2023-07-04T03:18:35.352Z,99760.28
2023-07-04T03:21:03.800Z,99749.63
2023-07-04T03:23:31.537Z,99757.47
2023-07-04T03:25:59.905Z,99747.50
2023-07-04T03:28:27.752Z,99744.75
2023-07-04T03:30:57.235Z,99748.13
2023-07-04T03:33:26.765Z,99751.50
2023-07-04T03:35:59.683Z,99748.41
2023-07-04T03:38:29.840Z,99762.41
2023-07-04T03:41:00.342Z,99758.66
2023-07-04T03:43:29.002Z,99761.22
2023-07-04T03:45:56.773Z,99763.97
2023-07-04T03:48:24.892Z,99765.69
2023-07-04T03:50:53.132Z,99767.41
2023-07-04T03:53:21.275Z,99761.00
2023-07-04T03:55:50.829Z,99775.91
2023-07-04T03:58:19.000Z,99762.03
2023-07-04T04:00:51.742Z,99774.91
2023-07-04T04:03:20.130Z,99764.34
2023-07-04T04:05:48.231Z,99769.47
2023-07-04T04:08:16.046Z,99769.84
2023-07-04T04:10:44.385Z,99773.19
2023-07-04T04:13:12.154Z,99773.53
2023-07-04T04:15:39.903Z,99777.09
2023-07-04T04:18:07.526Z,99781.22
2023-07-04T04:20:35.459Z,99780.28
2023-07-04T04:23:03.265Z,99779.81
2023-07-04T04:25:39.551Z,99774.31
2023-07-04T04:28:08.878Z,99784.06
2023-07-04T04:30:37.952Z,99786.81
2023-07-04T04:33:05.908Z,99786.44
2023-07-04T04:35:34.309Z,99783.66
2023-07-04T04:38:02.120Z,99790.91
2023-07-04T04:40:29.987Z,99788.81
2023-07-04T04:42:57.945Z,99796.59
2023-07-04T04:45:25.935Z,99794.31
2023-07-04T04:47:56.501Z,99797.53
2023-07-04T04:50:26.218Z,99791.78
2023-07-04T04:52:54.059Z,99794.19
2023-07-04T04:55:21.745Z,99793.72
2023-07-04T04:57:49.456Z,99796.00
2023-07-04T05:00:18.147Z,99793.66
2023-07-04T05:02:46.480Z,99807.09
2023-07-04T05:05:14.551Z,99804.53
2023-07-04T05:07:42.523Z,99808.06
2023-07-04T05:10:10.608Z,99815.06
2023-07-04T05:12:40.063Z,99811.84
2023-07-04T05:15:09.300Z,99808.19
2023-07-04T05:17:37.101Z,99810.91
2023-07-04T05:20:06.619Z,99823.75
2023-07-04T05:22:34.719Z,99826.38
2023-07-04T05:25:02.839Z,99823.97
2023-07-04T05:27:31.894Z,99823.31
2023-07-04T05:29:59.775Z,99828.38
2023-07-04T05:32:27.417Z,99834.56
2023-07-04T05:34:55.163Z,99840.97
2023-07-04T05:37:23.042Z,99841.78
2023-07-04T05:39:51.626Z,99839.69
2023-07-04T05:42:19.419Z,99840.81
2023-07-04T05:44:47.128Z,99844.75
2023-07-04T05:47:14.968Z,99835.53
2023-07-04T05:49:42.739Z,99842.66
2023-07-04T05:52:10.527Z,99844.38
2023-07-04T05:54:38.297Z,99850.88
2023-07-04T05:57:37.173Z,99851.56
2023-07-04T06:08:47.048Z,99856.34
2023-07-04T06:16:08.716Z,99859.66
2023-07-04T06:19:10.403Z,99866.66
2023-07-04T06:21:44.337Z,99868.81
2023-07-04T06:24:27.762Z,99874.41
2023-07-04T06:27:06.500Z,99870.31
2023-07-04T06:29:37.130Z,99866.97
2023-07-04T06:32:09.098Z,99861.72
2023-07-04T06:34:50.011Z,99867.72
2023-07-04T06:37:19.626Z,99862.19
2023-07-04T06:39:47.661Z,99858.72
2023-07-04T06:42:16.044Z,99865.22
2023-07-04T06:44:50.327Z,99858.44
2023-07-04T06:47:18.520Z,99870.31
2023-07-04T06:49:47.867Z,99870.84
2023-07-04T06:54:44.121Z,99875.81
2023-07-04T06:57:12.402Z,99875.81
2023-07-04T06:59:40.530Z,99877.72
2023-07-04T10:01:51.719Z,99895.59
2023-07-04T10:04:44.733Z,99903.16
2023-07-04T10:07:15.629Z,99910.16
2023-07-04T10:09:56.859Z,99905.91
2023-07-04T10:12:26.901Z,99904.34
2023-07-04T10:14:57.929Z,99906.22
2023-07-04T10:17:29.279Z,99905.69
2023-07-04T10:20:10.920Z,99892.88
2023-07-04T10:22:48.150Z,99884.91
2023-07-04T10:25:23.785Z,99890.00
2023-07-04T10:27:59.784Z,99893.41
2023-07-04T10:30:40.161Z,99898.00
2023-07-04T10:33:16.790Z,99888.16
2023-07-04T10:35:49.879Z,99886.09
2023-07-04T10:38:39.179Z,99885.53
2023-07-04T10:41:20.065Z,99893.03
2023-07-04T10:43:54.493Z,99894.91
2023-07-04T10:46:26.705Z,99884.50
2023-07-04T10:49:02.713Z,99890.38
2023-07-04T10:51:36.275Z,99896.50
2023-07-04T10:54:06.290Z,99898.63
2023-07-04T10:56:37.791Z,99895.97
2023-07-04T10:59:17.680Z,99902.09
2023-07-04T11:04:41.076Z,99893.81
2023-07-04T11:07:23.218Z,99894.91
2023-07-04T11:10:01.926Z,99880.75
2023-07-04T11:12:37.566Z,99878.34
2023-07-04T11:15:10.458Z,99878.63
2023-07-04T11:17:42.596Z,99869.78
2023-07-04T11:20:39.748Z,99878.53
2023-07-04T11:27:10.711Z,99869.72
2023-07-04T11:29:52.513Z,99875.03
2023-07-04T11:32:39.436Z,99868.63
2023-07-04T11:35:17.218Z,99873.97
2023-07-04T11:37:56.583Z,99869.97
2023-07-04T11:40:30.866Z,99874.13
2023-07-04T11:43:04.539Z,99867.16
2023-07-04T11:45:34.098Z,99863.84
2023-07-04T11:48:32.525Z,99867.25
2023-07-04T11:51:19.901Z,99857.84
2023-07-04T11:54:03.335Z,99859.84
2023-07-04T11:59:20.176Z,99860.44
2023-07-04T12:02:09.676Z,99861.88
2023-07-04T12:04:38.317Z,99861.69
2023-07-04T12:07:16.417Z,99857.28
2023-07-04T12:10:02.194Z,99855.19
2023-07-04T12:12:36.696Z,99862.97
2023-07-04T12:15:12.184Z,99861.94
2023-07-04T12:17:47.206Z,99867.38
2023-07-04T12:20:18.272Z,99873.91
2023-07-04T12:22:53.383Z,99857.13
2023-07-04T12:25:29.236Z,99854.16
2023-07-04T12:28:01.551Z,99845.91
2023-07-04T12:33:01.607Z,99847.56
2023-07-04T12:35:33.116Z,99845.28
2023-07-04T12:38:04.689Z,99831.16
2023-07-04T12:40:33.466Z,99842.88
2023-07-04T12:45:35.802Z,99842.84
2023-07-04T12:50:40.881Z,99849.00
2023-07-04T12:53:12.506Z,99849.91
2023-07-04T12:55:41.657Z,99842.28
2023-07-04T12:58:13.998Z,99847.91
2023-07-04T13:01:00.169Z,99840.22
2023-07-04T13:03:28.139Z,99836.91
2023-07-04T13:05:59.271Z,99833.13
2023-07-04T13:08:29.813Z,99828.41
2023-07-04T13:11:00.883Z,99828.13
2023-07-04T13:13:43.846Z,99830.31
2023-07-04T13:16:22.239Z,99821.63
2023-07-04T13:18:51.086Z,99834.19
2023-07-04T13:21:28.382Z,99837.41
2023-07-04T13:26:47.508Z,99833.91
2023-07-04T13:34:32.485Z,99828.41
2023-07-04T13:37:03.695Z,99831.97
2023-07-04T13:42:20.983Z,99811.69
2023-07-04T13:47:20.715Z,99823.84
2023-07-04T13:49:48.648Z,99822.06
2023-07-04T13:52:16.991Z,99820.63
2023-07-04T13:54:45.028Z,99812.59
2023-07-04T13:57:13.204Z,99817.53
2023-07-04T13:59:41.256Z,99804.94
2023-07-04T14:10:34.333Z,99804.69
2023-07-04T14:13:03.624Z,99793.34
2023-07-04T14:20:35.275Z,99805.53
2023-07-04T14:25:45.448Z,99812.03
2023-07-04T14:28:14.176Z,99807.53
2023-07-04T14:30:42.642Z,99804.47
2023-07-04T14:33:10.857Z,99821.50
2023-07-04T14:35:42.510Z,99808.13
2023-07-04T14:38:11.620Z,99799.69
2023-07-04T14:43:11.853Z,99795.53
2023-07-04T14:45:39.692Z,99794.22
2023-07-04T14:48:09.765Z,99787.88
2023-07-04T14:50:37.899Z,99792.75
2023-07-04T14:53:06.028Z,99795.69
2023-07-04T14:55:44.701Z,99786.75
2023-07-04T14:59:12.389Z,99785.56
2023-07-04T15:01:40.160Z,99792.94
2023-07-04T15:04:07.959Z,99787.50
2023-07-04T15:06:35.555Z,99791.44
2023-07-04T15:09:04.009Z,99797.63
2023-07-04T15:11:31.684Z,99786.84
2023-07-04T15:14:11.799Z,99792.88
2023-07-04T15:16:49.827Z,99782.31
2023-07-04T15:19:23.533Z,99794.81
2023-07-04T15:21:51.204Z,99797.03
2023-07-04T15:24:19.671Z,99794.56
2023-07-04T15:26:47.713Z,99793.69
2023-07-04T15:29:15.690Z,99786.59
2023-07-04T15:31:43.621Z,99788.59
2023-07-04T15:34:12.279Z,99786.19
2023-07-04T15:36:40.001Z,99782.28
2023-07-04T15:39:07.621Z,99784.69
2023-07-04T15:41:35.296Z,99776.47
2023-07-04T15:44:03.755Z,99783.34
2023-07-04T15:46:31.474Z,99780.38
2023-07-04T15:48:59.332Z,99780.44
2023-07-04T15:51:27.227Z,99773.75
2023-07-04T15:53:55.213Z,99782.31
2023-07-04T15:56:23.768Z,99781.50
2023-07-04T15:58:51.536Z,99782.28
2023-07-04T16:01:20.939Z,99786.25
2023-07-04T16:03:49.285Z,99790.25
2023-07-04T16:06:18.514Z,99785.63
2023-07-04T16:08:46.151Z,99789.00
2023-07-04T16:11:15.144Z,99787.34
2023-07-04T16:13:43.747Z,99791.00
2023-07-04T16:16:12.441Z,99787.97
2023-07-04T16:18:40.239Z,99797.31
2023-07-04T16:21:08.062Z,99794.81
2023-07-04T16:23:35.892Z,99796.41
2023-07-04T16:26:04.506Z,99798.59
2023-07-04T16:28:32.161Z,99796.38
2023-07-04T16:31:08.258Z,99792.13
2023-07-04T16:33:36.471Z,99798.94
2023-07-04T16:36:05.577Z,99788.00
2023-07-04T16:38:34.017Z,99795.66
2023-07-04T16:41:02.649Z,99794.31
2023-07-04T16:43:31.344Z,99792.09
2023-07-04T16:45:59.049Z,99794.47
2023-07-04T16:48:26.828Z,99800.97
2023-07-04T16:50:59.006Z,99799.06
2023-07-04T16:53:28.139Z,99803.00
2023-07-04T16:55:58.203Z,99796.91
2023-07-04T16:58:27.120Z,99802.16
2023-07-04T17:00:55.428Z,99805.72
2023-07-04T17:03:24.061Z,99801.53
2023-07-04T17:05:54.047Z,99808.09
2023-07-04T17:08:24.918Z,99807.03
2023-07-04T17:10:53.782Z,99809.09
2023-07-04T17:13:37.070Z,99807.75
2023-07-04T17:16:11.199Z,99813.13
2023-07-04T17:18:39.959Z,99810.19
2023-07-04T17:21:09.341Z,99821.19
2023-07-04T17:23:37.252Z,99823.66
2023-07-04T17:26:05.409Z,99817.34
2023-07-04T17:28:34.214Z,99819.69
2023-07-04T17:31:05.094Z,99825.06
2023-07-04T17:33:33.265Z,99824.00
2023-07-04T17:36:18.968Z,99824.94
2023-07-04T17:38:47.410Z,99838.44
2023-07-04T17:41:16.706Z,99831.56
2023-07-04T17:43:45.921Z,99839.13
2023-07-04T17:46:14.465Z,99834.09
2023-07-04T17:48:47.198Z,99844.53
2023-07-04T17:51:17.681Z,99850.94
2023-07-04T17:53:45.719Z,99851.47
2023-07-04T17:56:16.298Z,99850.44
2023-07-04T17:58:44.457Z,99854.38
2023-07-04T18:01:16.302Z,99858.59
2023-07-04T18:03:46.321Z,99868.97
2023-07-04T18:06:16.948Z,99866.50
2023-07-04T18:08:45.262Z,99867.22
2023-07-04T18:11:19.778Z,99872.22
2023-07-04T18:13:47.715Z,99867.09
2023-07-04T18:16:16.656Z,99872.88
2023-07-04T18:18:44.890Z,99881.31
2023-07-04T18:21:18.539Z,99878.28
2023-07-04T18:23:48.248Z,99881.13
2023-07-04T18:26:20.810Z,99886.13
2023-07-04T18:29:02.418Z,99882.88
2023-07-04T18:32:35.872Z,99886.28
2023-07-04T18:39:51.596Z,99881.00
2023-07-04T18:42:51.813Z,99884.06
2023-07-04T18:48:48.897Z,99887.91
2023-07-04T18:51:23.068Z,99895.78
2023-07-04T18:53:51.645Z,99890.88
2023-07-04T18:56:23.243Z,99887.06
2023-07-04T18:58:55.967Z,99874.25
2023-07-04T19:01:29.445Z,99885.06
2023-07-04T19:04:04.021Z,99890.81
2023-07-04T19:07:09.452Z,99885.63
2023-07-04T19:09:40.486Z,99894.06
2023-07-04T19:12:10.859Z,99893.47
2023-07-04T19:14:38.735Z,99895.81
2023-07-04T19:17:07.277Z,99898.13
2023-07-04T19:19:40.519Z,99889.00
2023-07-04T19:22:11.093Z,99896.94
2023-07-04T19:24:41.352Z,99892.06
2023-07-04T19:27:13.154Z,99896.25
2023-07-04T19:29:42.086Z,99895.94
2023-07-04T19:32:10.644Z,99900.91
2023-07-04T19:34:38.526Z,99901.41
2023-07-04T19:37:10.507Z,99894.47
2023-07-04T19:39:50.287Z,99897.88
2023-07-04T19:42:18.146Z,99908.47
2023-07-04T19:44:46.152Z,99907.81
2023-07-04T19:47:15.790Z,99909.81
2023-07-04T19:49:43.955Z,99912.94
2023-07-04T19:52:14.103Z,99905.72
2023-07-04T19:54:44.528Z,99902.19
2023-07-04T19:57:22.303Z,99913.59
2023-07-04T20:00:15.354Z,99910.94
2023-07-04T20:03:07.617Z,99919.44
2023-07-04T20:06:08.096Z,99920.47
2023-07-04T20:08:55.085Z,99914.84
2023-07-04T20:11:26.303Z,99924.31
2023-07-04T20:13:54.327Z,99924.50
2023-07-04T20:16:31.018Z,99925.75
2023-07-04T20:19:00.065Z,99919.91
2023-07-04T20:21:31.266Z,99931.78
2023-07-04T20:23:59.198Z,99927.50
2023-07-04T20:26:29.920Z,99932.00
2023-07-04T20:28:59.217Z,99934.44
2023-07-04T20:31:27.097Z,99923.16
2023-07-04T20:33:54.957Z,99923.59
2023-07-04T20:36:22.789Z,99931.53
2023-07-04T20:38:50.990Z,99934.69
2023-07-04T20:41:21.080Z,99934.16
2023-07-04T20:43:48.854Z,99938.31
2023-07-04T20:46:18.969Z,99937.44
2023-07-04T20:48:46.991Z,99940.66
2023-07-04T20:51:14.801Z,99938.72
2023-07-04T20:53:44.409Z,99931.47
2023-07-04T20:56:14.280Z,99929.53
2023-07-04T20:59:01.118Z,99936.66
2023-07-04T21:01:39.361Z,99937.47
2023-07-04T21:04:35.815Z,99937.31
2023-07-04T21:07:31.455Z,99938.38
2023-07-04T21:10:28.442Z,99931.13
2023-07-04T21:13:00.212Z,99946.91
2023-07-04T21:15:29.342Z,99932.22
2023-07-04T21:18:01.037Z,99935.56
2023-07-04T21:20:29.004Z,99944.78
2023-07-04T21:22:57.220Z,99948.94
2023-07-04T21:25:49.322Z,99951.94
2023-07-04T21:28:17.229Z,99949.75
2023-07-04T21:30:45.084Z,99947.13
2023-07-04T21:33:13.050Z,99955.03
2023-07-04T21:35:41.930Z,99949.63
2023-07-04T21:38:12.116Z,99961.84
2023-07-04T21:40:40.037Z,99959.63
2023-07-04T21:43:08.236Z,99957.47
2023-07-04T21:45:37.149Z,99965.16
2023-07-04T21:48:05.209Z,99958.38
2023-07-04T21:50:33.072Z,99957.72
2023-07-04T21:53:00.801Z,99960.22
2023-07-04T21:55:28.702Z,99964.34
2023-07-04T21:57:56.439Z,99975.38
2023-07-04T22:00:24.198Z,99970.56
2023-07-04T22:02:52.100Z,99976.84
2023-07-04T22:05:19.898Z,99974.22
2023-07-04T22:07:47.655Z,99975.50
2023-07-04T22:10:15.705Z,99974.44
2023-07-04T22:12:43.508Z,99976.75
2023-07-04T22:15:11.839Z,99981.69
2023-07-04T22:17:39.718Z,99977.31
2023-07-04T22:20:07.988Z,99982.59
2023-07-04T22:22:35.709Z,99974.91
2023-07-04T22:25:03.454Z,99992.81
2023-07-04T22:27:31.516Z,99988.44
2023-07-04T22:29:59.375Z,99981.44
2023-07-04T22:32:28.672Z,99983.47
2023-07-04T22:34:56.468Z,99985.44
2023-07-04T22:37:24.320Z,99993.94
2023-07-04T22:39:52.097Z,99990.94
2023-07-04T22:42:19.873Z,99990.00
2023-07-04T22:44:47.624Z,99988.03
2023-07-04T22:47:15.365Z,99988.59
2023-07-04T22:49:43.100Z,99989.91
2023-07-04T22:52:10.837Z,99991.03
2023-07-04T22:54:38.559Z,99991.69
2023-07-04T22:57:06.420Z,99996.63
2023-07-04T22:59:34.214Z,99998.78
2023-07-04T23:02:02.044Z,99996.56
2023-07-04T23:04:29.902Z,99996.44
2023-07-04T23:06:57.715Z,100000.78
2023-07-04T23:09:25.405Z,99996.59
2023-07-04T23:11:53.156Z,99998.28
2023-07-04T23:14:21.082Z,99995.50
2023-07-04T23:16:49.039Z,100000.41
2023-07-04T23:19:16.890Z,99989.72
2023-07-04T23:21:44.831Z,99996.47
2023-07-04T23:24:12.626Z,100005.41
2023-07-04T23:26:40.317Z,100002.19
2023-07-04T23:29:08.252Z,100013.59
2023-07-04T23:31:38.889Z,100005.53
2023-07-04T23:34:07.058Z,100019.28
2023-07-04T23:36:34.975Z,100020.34
2023-07-04T23:39:02.863Z,100007.56
2023-07-04T23:41:30.780Z,100006.97
2023-07-04T23:43:58.896Z,100008.34
2023-07-04T23:46:30.204Z,100001.13
2023-07-04T23:49:07.245Z,100000.38
2023-07-04T23:51:42.285Z,100006.09
2023-07-04T23:54:35.874Z,100004.09
2023-07-04T23:57:18.589Z,100007.75
2023-07-04T23:59:49.666Z,100004.31
